createdAt,value
2022-11-05T00:03:47.056Z,0.88885
2022-11-05T00:08:48.686Z,0.47405
2022-11-05T00:13:50.297Z,1.16185
2022-11-05T00:18:52.020Z,0
2022-11-05T00:23:53.661Z,0.88715
2022-11-05T00:28:55.309Z,0
2022-11-05T00:33:56.981Z,0
2022-11-05T00:38:58.676Z,0
2022-11-05T00:44:00.293Z,0
2022-11-05T00:49:01.980Z,0
2022-11-05T00:54:03.672Z,0
2022-11-05T00:59:05.290Z,0
2022-11-05T01:04:06.896Z,0
2022-11-05T01:09:08.534Z,0
2022-11-05T01:14:10.174Z,0
2022-11-05T01:19:11.885Z,0
2022-11-05T01:24:13.607Z,0
2022-11-05T01:29:15.336Z,0
2022-11-05T01:34:17.108Z,0
2022-11-05T01:39:18.783Z,0
2022-11-05T01:44:20.583Z,0
2022-11-05T01:49:22.266Z,0
2022-11-05T01:54:23.925Z,0
2022-11-05T01:59:25.587Z,0
2022-11-05T02:04:27.257Z,0
2022-11-05T02:09:28.895Z,0
2022-11-05T02:14:30.559Z,0
2022-11-05T02:19:32.224Z,0
2022-11-05T02:24:33.870Z,0
2022-11-05T02:29:35.492Z,0
2022-11-05T02:34:37.122Z,0
2022-11-05T02:39:38.806Z,0
2022-11-05T02:44:40.483Z,0
2022-11-05T02:49:42.179Z,0
2022-11-05T02:54:43.840Z,0
2022-11-05T02:59:45.449Z,0
2022-11-05T03:04:47.075Z,0
2022-11-05T03:09:48.751Z,0
2022-11-05T03:14:50.398Z,0
2022-11-05T03:19:52.011Z,0
2022-11-05T03:24:53.797Z,0
2022-11-05T03:29:55.452Z,0
2022-11-05T03:34:57.072Z,0
2022-11-05T03:39:58.948Z,0
2022-11-05T03:45:01.022Z,0
2022-11-05T03:50:02.629Z,0
2022-11-05T03:55:04.331Z,0
2022-11-05T04:00:05.979Z,0
2022-11-05T04:05:07.602Z,0
2022-11-05T04:10:09.293Z,0
2022-11-05T04:15:10.933Z,0
2022-11-05T04:20:12.600Z,0
2022-11-05T04:25:14.284Z,0
2022-11-05T04:30:15.994Z,0
2022-11-05T04:35:17.594Z,0
2022-11-05T04:40:19.257Z,0
2022-11-05T04:45:20.935Z,0
2022-11-05T04:50:22.606Z,0
2022-11-05T04:55:24.314Z,0
2022-11-05T05:00:25.998Z,0
2022-11-05T05:05:27.693Z,0
2022-11-05T05:10:29.344Z,0
2022-11-05T05:15:30.979Z,0
2022-11-05T05:20:32.732Z,0
2022-11-05T05:25:34.385Z,0
2022-11-05T05:30:36.031Z,0
2022-11-05T05:35:37.645Z,0
2022-11-05T05:40:39.186Z,0
2022-11-05T05:45:40.825Z,0
2022-11-05T05:50:42.441Z,0
2022-11-05T05:55:44.130Z,0
2022-11-05T06:00:45.780Z,0
2022-11-05T06:05:47.595Z,0
2022-11-05T06:10:49.304Z,0
2022-11-05T06:15:51.061Z,0
2022-11-05T06:20:52.764Z,0
2022-11-05T06:25:54.512Z,0
2022-11-05T06:30:56.118Z,0
2022-11-05T06:35:57.717Z,0
2022-11-05T06:40:59.511Z,0
2022-11-05T06:46:01.212Z,0
2022-11-05T06:51:03.006Z,0
2022-11-05T06:56:04.645Z,0
2022-11-05T07:01:06.365Z,0
2022-11-05T07:06:08.039Z,0
2022-11-05T07:11:09.691Z,0
2022-11-05T07:16:11.439Z,0
2022-11-05T07:21:13.206Z,0
2022-11-05T07:26:14.860Z,0
2022-11-05T07:31:16.556Z,0
2022-11-05T07:36:18.281Z,0
2022-11-05T07:41:19.977Z,0
2022-11-05T07:46:21.585Z,0
2022-11-05T07:51:23.229Z,0
2022-11-05T07:56:24.926Z,0
2022-11-05T08:01:26.787Z,0
2022-11-05T08:06:28.686Z,0
2022-11-05T08:11:30.414Z,0
2022-11-05T08:16:32.070Z,0
2022-11-05T08:21:33.856Z,0
2022-11-05T08:26:35.573Z,0
2022-11-05T08:31:37.179Z,0
2022-11-05T08:36:38.841Z,0
2022-11-05T08:41:40.468Z,0
2022-11-05T08:46:42.367Z,0
2022-11-05T08:51:43.987Z,0
2022-11-05T08:56:45.644Z,0
2022-11-05T09:01:47.438Z,0
2022-11-05T09:06:49.168Z,0
2022-11-05T09:12:10.980Z,0
2022-11-05T09:17:13.367Z,0
2022-11-05T09:22:15.046Z,0
2022-11-05T09:27:17.364Z,0
2022-11-05T09:32:19.082Z,0
2022-11-05T09:37:20.726Z,0
2022-11-05T09:42:22.560Z,0
2022-11-05T09:47:24.204Z,0
2022-11-05T09:52:25.879Z,0
2022-11-05T09:57:27.586Z,0
2022-11-05T10:02:29.530Z,0
2022-11-05T10:07:31.284Z,0
2022-11-05T10:12:32.897Z,0
2022-11-05T10:17:38.860Z,0
2022-11-05T10:22:43.940Z,0
2022-11-05T10:27:49.985Z,0
2022-11-05T10:32:51.584Z,0
2022-11-05T10:37:53.193Z,0
2022-11-05T10:42:54.783Z,0
2022-11-05T10:47:56.421Z,0
2022-11-05T10:52:58.129Z,0
2022-11-05T10:57:59.782Z,0
2022-11-05T11:03:01.517Z,0
2022-11-05T11:08:03.348Z,0
2022-11-05T11:13:04.999Z,0
2022-11-05T11:18:06.636Z,0
2022-11-05T11:23:08.516Z,0
2022-11-05T11:28:10.276Z,0
2022-11-05T11:33:12.433Z,0
2022-11-05T11:38:14.251Z,0
2022-11-05T11:43:15.929Z,0
2022-11-05T11:48:17.577Z,0
2022-11-05T11:53:19.272Z,0
2022-11-05T11:58:21.008Z,0
2022-11-05T12:03:22.771Z,0
2022-11-05T12:08:24.588Z,0
2022-11-05T12:13:26.291Z,0
2022-11-05T12:18:27.928Z,0
2022-11-05T12:23:29.649Z,0
2022-11-05T12:28:31.322Z,0
2022-11-05T12:33:32.992Z,0
2022-11-05T12:38:34.666Z,0
2022-11-05T12:43:36.627Z,0
2022-11-05T12:48:38.318Z,0
2022-11-05T12:53:39.944Z,0
2022-11-05T12:58:41.622Z,0
2022-11-05T13:03:43.256Z,0
2022-11-05T13:08:44.848Z,0
2022-11-05T13:13:46.578Z,0
2022-11-05T13:18:48.176Z,0
2022-11-05T13:23:49.835Z,0
2022-11-05T13:28:51.465Z,0
2022-11-05T13:33:53.070Z,0
2022-11-05T13:38:54.706Z,0
2022-11-05T13:43:56.375Z,0
2022-11-05T13:48:57.979Z,0
2022-11-05T13:53:59.711Z,0
2022-11-05T13:59:01.613Z,0
2022-11-05T14:04:03.326Z,0
2022-11-05T14:09:05.043Z,0
2022-11-05T14:14:06.678Z,0
2022-11-05T14:19:08.435Z,0
2022-11-05T14:24:10.128Z,0
2022-11-05T14:29:11.790Z,0
2022-11-05T14:34:13.651Z,0.47405
2022-11-05T14:39:15.323Z,0.8296
2022-11-05T14:44:16.998Z,2.6926
2022-11-05T14:49:18.598Z,1.6592
2022-11-05T14:54:20.262Z,4.0389
2022-11-05T14:59:21.893Z,4.22335
2022-11-05T15:04:23.552Z,4.59225
2022-11-05T15:09:25.224Z,4.96115
2022-11-05T15:14:26.858Z,4.9776
2022-11-05T15:19:28.513Z,7.04525
2022-11-05T15:24:30.276Z,8.4738
2022-11-05T15:29:31.948Z,11.55515
2022-11-05T15:34:33.707Z,13.1551
2022-11-05T15:39:35.308Z,25.599
2022-11-05T15:44:37.061Z,67.1384
2022-11-05T15:49:38.827Z,18.0734
2022-11-05T15:54:40.436Z,18.36965
2022-11-05T15:59:42.177Z,18.4289
2022-11-05T16:04:43.962Z,19.91035
2022-11-05T16:09:45.559Z,21.2733
2022-11-05T16:19:47.519Z,17.9549
2022-11-05T16:24:49.294Z,20.3252
2022-11-05T16:29:50.978Z,17.71785
2022-11-05T16:34:52.584Z,9.9552
2022-11-05T16:39:54.278Z,10.42925
2022-11-05T16:44:55.995Z,11.14035
2022-11-05T16:54:58.104Z,22.2976
2022-11-05T16:59:59.825Z,29.2497
2022-11-05T17:05:01.576Z,30.17195
2022-11-05T17:10:03.251Z,22.59235
2022-11-05T17:15:04.970Z,27.12945
2022-11-05T17:20:06.654Z,27.62765
2022-11-05T17:25:08.312Z,37.2728
2022-11-05T17:30:09.998Z,43.4355
2022-11-05T17:35:11.924Z,42.6059
2022-11-05T17:40:13.586Z,50.78335
2022-11-05T17:45:15.292Z,204.25925
2022-11-05T17:50:16.941Z,66.54565
2022-11-05T17:55:18.873Z,53.39065
2022-11-05T18:00:20.559Z,60.91625
2022-11-05T18:05:22.225Z,53.74615
2022-11-05T18:10:24.700Z,58.36815
2022-11-05T18:15:26.317Z,66.9604
2022-11-05T18:20:28.010Z,60.85695
2022-11-05T18:25:29.691Z,55.16825
2022-11-05T18:30:31.379Z,38.043
2022-11-05T18:35:33.190Z,36.4431
2022-11-05T18:40:35.203Z,35.8505
2022-11-05T18:45:37.051Z,28.50265
2022-11-05T18:50:38.779Z,32.5914
2022-11-05T18:55:40.782Z,34.9024
2022-11-05T19:00:42.597Z,32.94695
2022-11-05T19:05:44.344Z,30.6359
2022-11-05T19:10:46.104Z,30.9322
2022-11-05T19:15:47.763Z,24.2954
2022-11-05T19:20:49.466Z,28.6212
2022-11-05T19:25:51.188Z,36.4431
2022-11-05T19:30:52.857Z,34.42835
2022-11-05T19:35:54.481Z,34.9024
2022-11-05T19:40:56.238Z,32.23585
2022-11-05T19:45:57.895Z,32.0581
2022-11-05T19:50:59.661Z,42.3688
2022-11-05T19:56:01.264Z,48.65
2022-11-05T20:01:03.014Z,47.7612
2022-11-05T20:06:04.738Z,43.07985
2022-11-05T20:11:06.901Z,49.3019
2022-11-05T20:16:08.612Z,56.8868
2022-11-05T20:21:10.246Z,71.34555
2022-11-05T20:26:12.018Z,135.58
2022-11-05T20:31:13.709Z,97.65565
2022-11-05T20:36:15.333Z,81.95255
2022-11-05T20:41:17.017Z,248.5236
2022-11-05T20:46:19.176Z,129.71355
2022-11-05T20:51:20.868Z,75.25655
2022-11-05T20:56:22.792Z,187.1336
2022-11-05T21:01:24.540Z,228.4948
2022-11-05T21:06:26.207Z,45.0356
2022-11-05T21:11:28.242Z,36.6277
2022-11-05T21:16:29.941Z,52.91675
2022-11-05T21:21:31.580Z,37.91885
2022-11-05T21:26:33.207Z,35.96405
2022-11-05T21:31:34.860Z,38.9514
2022-11-05T21:36:36.535Z,144.35005
2022-11-05T21:41:38.422Z,199.222
2022-11-05T21:46:40.140Z,183.519
2022-11-05T21:51:41.857Z,190.6891
2022-11-05T21:56:43.578Z,191.341
2022-11-05T22:01:45.511Z,178.95625
2022-11-05T22:06:47.336Z,142.15765
2022-11-05T22:11:49.230Z,170.30465
2022-11-05T22:16:50.877Z,168.34915
2022-11-05T22:21:52.950Z,166.74925
2022-11-05T22:26:54.636Z,167.81585
2022-11-05T22:31:57.061Z,172.20085
2022-11-05T22:36:58.784Z,163.60855
2022-11-05T22:42:04.331Z,60.61985
2022-11-05T22:47:10.704Z,50.9018
2022-11-05T22:52:12.319Z,52.4425
2022-11-05T22:57:14.379Z,58.3089
2022-11-05T23:02:16.472Z,60.2051
2022-11-05T23:07:20.969Z,45.8057
2022-11-05T23:12:26.331Z,35.3765
2022-11-05T23:17:27.997Z,33.12475
2022-11-05T23:22:29.905Z,32.8284
2022-11-05T23:27:31.677Z,31.1692
2022-11-05T23:32:33.376Z,21.5696
2022-11-05T23:37:35.056Z,13.62915
2022-11-05T23:42:36.812Z,10.60705
2022-11-05T23:47:38.694Z,10.8997
2022-11-05T23:52:40.388Z,5.3924
2022-11-05T23:57:42.255Z,3.7332
